sensor_id;sensor_type;location;lat;lon;timestamp;temperature;humidity
46364;DHT22;32071;49.036;9.344;2023-06-26T00:00:19;16.90;99.90
46364;DHT22;32071;49.036;9.344;2023-06-26T00:02:45;16.90;99.90
46364;DHT22;32071;49.036;9.344;2023-06-26T00:05:11;16.90;99.90
46364;DHT22;32071;49.036;9.344;2023-06-26T00:07:36;16.80;99.90
46364;DHT22;32071;49.036;9.344;2023-06-26T00:10:03;16.80;99.90
46364;DHT22;32071;49.036;9.344;2023-06-26T00:12:29;16.80;99.90
46364;DHT22;32071;49.036;9.344;2023-06-26T00:14:55;16.80;99.90
46364;DHT22;32071;49.036;9.344;2023-06-26T00:17:21;16.80;99.90
46364;DHT22;32071;49.036;9.344;2023-06-26T00:19:47;16.80;99.90
46364;DHT22;32071;49.036;9.344;2023-06-26T00:22:13;16.70;99.90
46364;DHT22;32071;49.036;9.344;2023-06-26T00:24:39;16.70;99.90
46364;DHT22;32071;49.036;9.344;2023-06-26T00:27:04;16.70;99.90
46364;DHT22;32071;49.036;9.344;2023-06-26T00:29:30;16.60;99.90
46364;DHT22;32071;49.036;9.344;2023-06-26T00:31:56;16.60;99.90
46364;DHT22;32071;49.036;9.344;2023-06-26T00:34:21;16.60;99.90
46364;DHT22;32071;49.036;9.344;2023-06-26T00:36:47;16.50;99.90
46364;DHT22;32071;49.036;9.344;2023-06-26T00:39:12;16.50;99.90
46364;DHT22;32071;49.036;9.344;2023-06-26T00:41:39;16.50;99.90
46364;DHT22;32071;49.036;9.344;2023-06-26T00:44:05;16.50;99.90
46364;DHT22;32071;49.036;9.344;2023-06-26T00:46:31;16.50;99.90
46364;DHT22;32071;49.036;9.344;2023-06-26T00:48:58;16.50;99.90
46364;DHT22;32071;49.036;9.344;2023-06-26T00:51:26;16.50;99.90
46364;DHT22;32071;49.036;9.344;2023-06-26T00:53:51;16.50;99.90
46364;DHT22;32071;49.036;9.344;2023-06-26T00:56:18;16.40;99.90
46364;DHT22;32071;49.036;9.344;2023-06-26T00:58:44;16.40;99.90
46364;DHT22;32071;49.036;9.344;2023-06-26T01:01:11;16.40;99.90
46364;DHT22;32071;49.036;9.344;2023-06-26T01:03:39;16.30;99.90
46364;DHT22;32071;49.036;9.344;2023-06-26T01:06:05;16.40;99.90
46364;DHT22;32071;49.036;9.344;2023-06-26T01:08:31;16.40;99.90
46364;DHT22;32071;49.036;9.344;2023-06-26T01:10:57;16.50;99.90
46364;DHT22;32071;49.036;9.344;2023-06-26T01:13:24;16.50;99.90
46364;DHT22;32071;49.036;9.344;2023-06-26T01:15:50;16.60;99.90
46364;DHT22;32071;49.036;9.344;2023-06-26T01:18:16;16.60;99.90
46364;DHT22;32071;49.036;9.344;2023-06-26T01:20:42;16.60;99.90
46364;DHT22;32071;49.036;9.344;2023-06-26T01:23:24;16.50;99.90
46364;DHT22;32071;49.036;9.344;2023-06-26T01:28:41;16.40;99.90
46364;DHT22;32071;49.036;9.344;2023-06-26T01:31:07;16.40;99.90
46364;DHT22;32071;49.036;9.344;2023-06-26T01:33:34;16.40;99.90
46364;DHT22;32071;49.036;9.344;2023-06-26T01:36:00;16.40;99.90
46364;DHT22;32071;49.036;9.344;2023-06-26T01:38:26;16.50;99.90
46364;DHT22;32071;49.036;9.344;2023-06-26T01:40:52;16.40;99.90
46364;DHT22;32071;49.036;9.344;2023-06-26T01:43:25;16.40;99.90
46364;DHT22;32071;49.036;9.344;2023-06-26T01:45:55;16.40;99.90
46364;DHT22;32071;49.036;9.344;2023-06-26T01:48:25;16.30;99.90
46364;DHT22;32071;49.036;9.344;2023-06-26T01:50:54;16.30;99.90
46364;DHT22;32071;49.036;9.344;2023-06-26T01:53:24;16.30;99.90
46364;DHT22;32071;49.036;9.344;2023-06-26T01:55:55;16.20;99.90
46364;DHT22;32071;49.036;9.344;2023-06-26T01:58:25;16.20;99.90
46364;DHT22;32071;49.036;9.344;2023-06-26T02:00:51;16.20;99.90
46364;DHT22;32071;49.036;9.344;2023-06-26T02:03:17;16.20;99.90
46364;DHT22;32071;49.036;9.344;2023-06-26T02:05:43;16.20;99.90
46364;DHT22;32071;49.036;9.344;2023-06-26T02:08:14;16.20;99.90
46364;DHT22;32071;49.036;9.344;2023-06-26T02:10:39;16.10;99.90
46364;DHT22;32071;49.036;9.344;2023-06-26T02:13:05;16.10;99.90
46364;DHT22;32071;49.036;9.344;2023-06-26T02:15:30;16.10;99.90
46364;DHT22;32071;49.036;9.344;2023-06-26T02:17:56;16.10;99.90
46364;DHT22;32071;49.036;9.344;2023-06-26T02:20:21;16.00;99.90
46364;DHT22;32071;49.036;9.344;2023-06-26T02:22:47;16.00;99.90
46364;DHT22;32071;49.036;9.344;2023-06-26T02:25:14;16.00;99.90
46364;DHT22;32071;49.036;9.344;2023-06-26T02:27:40;16.00;99.90
46364;DHT22;32071;49.036;9.344;2023-06-26T02:30:07;16.00;99.90
46364;DHT22;32071;49.036;9.344;2023-06-26T02:32:33;16.00;99.90
46364;DHT22;32071;49.036;9.344;2023-06-26T02:34:58;16.00;99.90
46364;DHT22;32071;49.036;9.344;2023-06-26T02:37:24;16.00;99.90
46364;DHT22;32071;49.036;9.344;2023-06-26T02:39:49;16.00;99.90
46364;DHT22;32071;49.036;9.344;2023-06-26T02:42:15;15.90;99.90
46364;DHT22;32071;49.036;9.344;2023-06-26T02:44:40;15.90;99.90
46364;DHT22;32071;49.036;9.344;2023-06-26T02:47:06;15.90;99.90
46364;DHT22;32071;49.036;9.344;2023-06-26T02:49:32;15.80;99.90
46364;DHT22;32071;49.036;9.344;2023-06-26T02:51:57;15.80;99.90
46364;DHT22;32071;49.036;9.344;2023-06-26T02:54:23;15.80;99.90
46364;DHT22;32071;49.036;9.344;2023-06-26T02:56:48;15.80;99.90
46364;DHT22;32071;49.036;9.344;2023-06-26T02:59:14;15.80;99.90
46364;DHT22;32071;49.036;9.344;2023-06-26T03:01:40;15.80;99.90
46364;DHT22;32071;49.036;9.344;2023-06-26T03:04:05;15.70;99.90
46364;DHT22;32071;49.036;9.344;2023-06-26T03:06:31;15.70;99.90
46364;DHT22;32071;49.036;9.344;2023-06-26T03:08:56;15.70;99.90
46364;DHT22;32071;49.036;9.344;2023-06-26T03:11:22;15.70;99.90
46364;DHT22;32071;49.036;9.344;2023-06-26T03:13:48;15.70;99.90
46364;DHT22;32071;49.036;9.344;2023-06-26T03:16:13;15.70;99.90
46364;DHT22;32071;49.036;9.344;2023-06-26T03:18:39;15.70;99.90
46364;DHT22;32071;49.036;9.344;2023-06-26T03:21:04;15.70;99.90
46364;DHT22;32071;49.036;9.344;2023-06-26T03:23:30;15.70;99.90
46364;DHT22;32071;49.036;9.344;2023-06-26T03:25:55;15.70;99.90
46364;DHT22;32071;49.036;9.344;2023-06-26T03:28:21;15.70;99.90
46364;DHT22;32071;49.036;9.344;2023-06-26T03:30:46;15.70;99.90
46364;DHT22;32071;49.036;9.344;2023-06-26T03:33:12;15.70;99.90
46364;DHT22;32071;49.036;9.344;2023-06-26T03:35:38;15.70;99.90
46364;DHT22;32071;49.036;9.344;2023-06-26T03:38:04;15.60;99.90
46364;DHT22;32071;49.036;9.344;2023-06-26T03:40:30;15.50;99.90
46364;DHT22;32071;49.036;9.344;2023-06-26T03:42:55;15.50;99.90
46364;DHT22;32071;49.036;9.344;2023-06-26T03:45:21;15.50;99.90
46364;DHT22;32071;49.036;9.344;2023-06-26T03:47:47;15.50;99.90
46364;DHT22;32071;49.036;9.344;2023-06-26T03:50:15;15.50;99.90
46364;DHT22;32071;49.036;9.344;2023-06-26T03:52:41;15.40;99.90
46364;DHT22;32071;49.036;9.344;2023-06-26T03:55:07;15.40;99.90
46364;DHT22;32071;49.036;9.344;2023-06-26T03:57:33;15.40;99.90
46364;DHT22;32071;49.036;9.344;2023-06-26T03:59:59;15.40;99.90
46364;DHT22;32071;49.036;9.344;2023-06-26T04:02:25;15.40;99.90
46364;DHT22;32071;49.036;9.344;2023-06-26T04:04:50;15.40;99.90
46364;DHT22;32071;49.036;9.344;2023-06-26T04:07:18;15.40;99.90
46364;DHT22;32071;49.036;9.344;2023-06-26T04:09:44;15.40;99.90
46364;DHT22;32071;49.036;9.344;2023-06-26T04:12:10;15.40;99.90
46364;DHT22;32071;49.036;9.344;2023-06-26T04:14:35;15.40;99.90
46364;DHT22;32071;49.036;9.344;2023-06-26T04:17:01;15.50;99.90
46364;DHT22;32071;49.036;9.344;2023-06-26T04:19:29;15.40;99.90
46364;DHT22;32071;49.036;9.344;2023-06-26T04:21:55;15.50;99.90
46364;DHT22;32071;49.036;9.344;2023-06-26T04:24:21;15.50;99.90
46364;DHT22;32071;49.036;9.344;2023-06-26T04:26:47;15.60;99.90
46364;DHT22;32071;49.036;9.344;2023-06-26T04:29:12;15.70;99.90
46364;DHT22;32071;49.036;9.344;2023-06-26T04:31:39;15.80;99.90
46364;DHT22;32071;49.036;9.344;2023-06-26T04:34:04;15.90;99.90
46364;DHT22;32071;49.036;9.344;2023-06-26T04:36:30;16.00;99.90
46364;DHT22;32071;49.036;9.344;2023-06-26T04:38:57;16.00;99.90
46364;DHT22;32071;49.036;9.344;2023-06-26T04:41:24;16.20;99.90
46364;DHT22;32071;49.036;9.344;2023-06-26T04:43:49;16.20;99.90
46364;DHT22;32071;49.036;9.344;2023-06-26T04:46:15;16.30;99.90
46364;DHT22;32071;49.036;9.344;2023-06-26T04:48:40;16.40;99.90
46364;DHT22;32071;49.036;9.344;2023-06-26T04:51:06;16.50;99.90
46364;DHT22;32071;49.036;9.344;2023-06-26T04:53:32;16.60;99.90
46364;DHT22;32071;49.036;9.344;2023-06-26T04:55:57;16.70;99.90
46364;DHT22;32071;49.036;9.344;2023-06-26T04:58:23;16.80;99.90
46364;DHT22;32071;49.036;9.344;2023-06-26T05:00:48;16.90;99.90
46364;DHT22;32071;49.036;9.344;2023-06-26T05:03:16;17.00;99.90
46364;DHT22;32071;49.036;9.344;2023-06-26T05:05:42;17.10;99.90
46364;DHT22;32071;49.036;9.344;2023-06-26T05:08:18;17.20;99.90
46364;DHT22;32071;49.036;9.344;2023-06-26T05:10:44;17.30;99.90
46364;DHT22;32071;49.036;9.344;2023-06-26T05:13:10;17.40;99.90
46364;DHT22;32071;49.036;9.344;2023-06-26T05:15:36;17.50;99.90
46364;DHT22;32071;49.036;9.344;2023-06-26T05:18:02;17.60;99.90
46364;DHT22;32071;49.036;9.344;2023-06-26T05:20:27;17.70;99.90
46364;DHT22;32071;49.036;9.344;2023-06-26T05:22:53;17.80;99.90
46364;DHT22;32071;49.036;9.344;2023-06-26T05:25:19;17.90;99.90
46364;DHT22;32071;49.036;9.344;2023-06-26T05:27:47;18.00;99.90
46364;DHT22;32071;49.036;9.344;2023-06-26T05:30:14;18.10;99.90
46364;DHT22;32071;49.036;9.344;2023-06-26T05:32:40;18.30;99.90
46364;DHT22;32071;49.036;9.344;2023-06-26T05:35:07;18.40;99.90
46364;DHT22;32071;49.036;9.344;2023-06-26T05:37:33;18.50;99.90
46364;DHT22;32071;49.036;9.344;2023-06-26T05:40:00;18.60;99.90
46364;DHT22;32071;49.036;9.344;2023-06-26T05:42:27;18.70;99.90
46364;DHT22;32071;49.036;9.344;2023-06-26T05:44:53;18.80;99.90
46364;DHT22;32071;49.036;9.344;2023-06-26T05:47:19;19.00;99.90
46364;DHT22;32071;49.036;9.344;2023-06-26T05:49:44;19.10;99.90
46364;DHT22;32071;49.036;9.344;2023-06-26T05:52:11;19.20;99.90
46364;DHT22;32071;49.036;9.344;2023-06-26T05:54:37;19.30;99.90
46364;DHT22;32071;49.036;9.344;2023-06-26T05:57:03;19.40;99.90
46364;DHT22;32071;49.036;9.344;2023-06-26T05:59:31;19.50;99.90
46364;DHT22;32071;49.036;9.344;2023-06-26T06:01:57;19.60;99.90
46364;DHT22;32071;49.036;9.344;2023-06-26T06:04:23;19.70;99.90
46364;DHT22;32071;49.036;9.344;2023-06-26T06:06:48;19.90;99.90
46364;DHT22;32071;49.036;9.344;2023-06-26T06:09:14;20.00;99.90
46364;DHT22;32071;49.036;9.344;2023-06-26T06:11:39;20.10;99.90
46364;DHT22;32071;49.036;9.344;2023-06-26T06:14:05;20.20;99.90
46364;DHT22;32071;49.036;9.344;2023-06-26T06:16:31;20.30;99.90
46364;DHT22;32071;49.036;9.344;2023-06-26T06:18:56;20.40;99.90
46364;DHT22;32071;49.036;9.344;2023-06-26T06:21:22;20.50;99.90
46364;DHT22;32071;49.036;9.344;2023-06-26T06:23:47;20.60;99.90
46364;DHT22;32071;49.036;9.344;2023-06-26T06:26:13;20.80;99.90
46364;DHT22;32071;49.036;9.344;2023-06-26T06:28:39;20.90;99.90
46364;DHT22;32071;49.036;9.344;2023-06-26T06:31:04;21.10;99.90
46364;DHT22;32071;49.036;9.344;2023-06-26T06:33:30;21.20;99.90
46364;DHT22;32071;49.036;9.344;2023-06-26T06:35:56;21.30;99.90
46364;DHT22;32071;49.036;9.344;2023-06-26T06:38:21;21.50;99.90
46364;DHT22;32071;49.036;9.344;2023-06-26T06:40:47;21.60;99.90
46364;DHT22;32071;49.036;9.344;2023-06-26T06:43:12;21.80;99.90
46364;DHT22;32071;49.036;9.344;2023-06-26T06:45:38;21.90;99.90
46364;DHT22;32071;49.036;9.344;2023-06-26T06:48:04;22.10;99.90
46364;DHT22;32071;49.036;9.344;2023-06-26T06:50:30;22.20;99.90
46364;DHT22;32071;49.036;9.344;2023-06-26T06:52:55;22.30;99.90
46364;DHT22;32071;49.036;9.344;2023-06-26T06:55:21;22.40;99.90
46364;DHT22;32071;49.036;9.344;2023-06-26T06:57:47;22.60;99.90
46364;DHT22;32071;49.036;9.344;2023-06-26T07:00:13;22.70;99.90
46364;DHT22;32071;49.036;9.344;2023-06-26T07:02:43;22.80;99.90
46364;DHT22;32071;49.036;9.344;2023-06-26T07:05:09;22.90;98.80
46364;DHT22;32071;49.036;9.344;2023-06-26T07:07:36;23.10;99.70
46364;DHT22;32071;49.036;9.344;2023-06-26T07:10:04;23.10;99.10
46364;DHT22;32071;49.036;9.344;2023-06-26T07:12:30;23.20;98.30
46364;DHT22;32071;49.036;9.344;2023-06-26T07:14:56;23.30;97.40
46364;DHT22;32071;49.036;9.344;2023-06-26T07:17:22;23.40;97.60
46364;DHT22;32071;49.036;9.344;2023-06-26T07:19:49;23.50;97.80
46364;DHT22;32071;49.036;9.344;2023-06-26T07:22:14;23.50;96.00
46364;DHT22;32071;49.036;9.344;2023-06-26T07:24:40;23.50;96.70
46364;DHT22;32071;49.036;9.344;2023-06-26T07:27:05;23.60;95.80
46364;DHT22;32071;49.036;9.344;2023-06-26T07:29:31;23.60;97.20
46364;DHT22;32071;49.036;9.344;2023-06-26T07:31:56;23.70;96.80
46364;DHT22;32071;49.036;9.344;2023-06-26T07:34:22;23.80;96.10
46364;DHT22;32071;49.036;9.344;2023-06-26T07:36:48;23.90;96.80
46364;DHT22;32071;49.036;9.344;2023-06-26T07:39:13;24.00;97.00
46364;DHT22;32071;49.036;9.344;2023-06-26T07:41:39;24.00;95.80
46364;DHT22;32071;49.036;9.344;2023-06-26T07:44:04;24.10;96.00
46364;DHT22;32071;49.036;9.344;2023-06-26T07:46:30;24.20;96.00
46364;DHT22;32071;49.036;9.344;2023-06-26T07:48:55;24.20;95.50
46364;DHT22;32071;49.036;9.344;2023-06-26T07:51:21;24.20;95.00
46364;DHT22;32071;49.036;9.344;2023-06-26T07:53:47;24.30;94.60
46364;DHT22;32071;49.036;9.344;2023-06-26T07:56:12;24.40;94.50
46364;DHT22;32071;49.036;9.344;2023-06-26T07:58:38;24.50;95.10
46364;DHT22;32071;49.036;9.344;2023-06-26T08:01:03;24.60;94.40
46364;DHT22;32071;49.036;9.344;2023-06-26T08:03:29;24.80;92.80
46364;DHT22;32071;49.036;9.344;2023-06-26T08:05:55;25.00;93.30
46364;DHT22;32071;49.036;9.344;2023-06-26T08:08:20;25.10;93.80
46364;DHT22;32071;49.036;9.344;2023-06-26T08:10:46;25.20;94.00
46364;DHT22;32071;49.036;9.344;2023-06-26T08:13:11;25.20;93.80
46364;DHT22;32071;49.036;9.344;2023-06-26T08:15:37;25.40;92.90
46364;DHT22;32071;49.036;9.344;2023-06-26T08:18:03;25.50;93.50
46364;DHT22;32071;49.036;9.344;2023-06-26T08:20:28;25.60;92.60
46364;DHT22;32071;49.036;9.344;2023-06-26T08:22:55;25.70;93.30
46364;DHT22;32071;49.036;9.344;2023-06-26T08:25:20;25.70;93.10
46364;DHT22;32071;49.036;9.344;2023-06-26T08:27:46;25.70;92.90
46364;DHT22;32071;49.036;9.344;2023-06-26T08:30:12;25.70;92.10
46364;DHT22;32071;49.036;9.344;2023-06-26T08:32:38;25.90;92.00
46364;DHT22;32071;49.036;9.344;2023-06-26T08:35:06;26.00;91.70
46364;DHT22;32071;49.036;9.344;2023-06-26T08:37:31;26.00;91.60
46364;DHT22;32071;49.036;9.344;2023-06-26T08:40:01;26.00;92.10
46364;DHT22;32071;49.036;9.344;2023-06-26T08:42:26;26.00;90.60
46364;DHT22;32071;49.036;9.344;2023-06-26T08:44:52;26.10;92.40
46364;DHT22;32071;49.036;9.344;2023-06-26T08:47:19;26.20;91.60
46364;DHT22;32071;49.036;9.344;2023-06-26T08:52:35;26.40;92.00
46364;DHT22;32071;49.036;9.344;2023-06-26T08:55:02;26.50;91.70
46364;DHT22;32071;49.036;9.344;2023-06-26T08:57:28;26.60;91.70
46364;DHT22;32071;49.036;9.344;2023-06-26T08:59:55;26.70;91.60
46364;DHT22;32071;49.036;9.344;2023-06-26T09:02:21;26.80;91.20
46364;DHT22;32071;49.036;9.344;2023-06-26T09:04:48;26.90;90.90
46364;DHT22;32071;49.036;9.344;2023-06-26T09:07:14;27.00;90.90
46364;DHT22;32071;49.036;9.344;2023-06-26T09:09:40;27.10;91.50
46364;DHT22;32071;49.036;9.344;2023-06-26T09:12:06;27.10;90.50
46364;DHT22;32071;49.036;9.344;2023-06-26T09:14:33;27.20;90.10
46364;DHT22;32071;49.036;9.344;2023-06-26T09:16:59;27.40;90.10
46364;DHT22;32071;49.036;9.344;2023-06-26T09:19:24;27.50;88.60
46364;DHT22;32071;49.036;9.344;2023-06-26T09:21:50;27.60;90.10
46364;DHT22;32071;49.036;9.344;2023-06-26T09:24:17;27.70;90.10
46364;DHT22;32071;49.036;9.344;2023-06-26T09:26:43;27.80;88.40
46364;DHT22;32071;49.036;9.344;2023-06-26T09:29:09;27.90;89.30
46364;DHT22;32071;49.036;9.344;2023-06-26T09:31:39;28.00;88.30
46364;DHT22;32071;49.036;9.344;2023-06-26T09:34:05;28.20;86.50
46364;DHT22;32071;49.036;9.344;2023-06-26T09:36:31;28.30;88.10
46364;DHT22;32071;49.036;9.344;2023-06-26T09:39:03;28.50;86.80
46364;DHT22;32071;49.036;9.344;2023-06-26T09:41:29;28.60;87.30
46364;DHT22;32071;49.036;9.344;2023-06-26T09:43:58;28.70;84.90
46364;DHT22;32071;49.036;9.344;2023-06-26T09:46:30;28.70;86.40
46364;DHT22;32071;49.036;9.344;2023-06-26T09:49:06;28.80;84.80
46364;DHT22;32071;49.036;9.344;2023-06-26T09:51:33;29.00;84.50
46364;DHT22;32071;49.036;9.344;2023-06-26T09:54:02;29.10;83.10
46364;DHT22;32071;49.036;9.344;2023-06-26T09:56:29;29.20;83.00
46364;DHT22;32071;49.036;9.344;2023-06-26T09:59:00;29.40;83.40
46364;DHT22;32071;49.036;9.344;2023-06-26T10:01:27;29.50;81.80
46364;DHT22;32071;49.036;9.344;2023-06-26T10:03:54;29.70;81.90
46364;DHT22;32071;49.036;9.344;2023-06-26T10:06:32;29.90;81.10
46364;DHT22;32071;49.036;9.344;2023-06-26T10:08:59;29.90;81.90
46364;DHT22;32071;49.036;9.344;2023-06-26T10:11:31;29.70;82.00
46364;DHT22;32071;49.036;9.344;2023-06-26T10:13:58;29.70;81.80
46364;DHT22;32071;49.036;9.344;2023-06-26T10:16:26;29.90;81.10
46364;DHT22;32071;49.036;9.344;2023-06-26T10:18:57;29.80;82.70
46364;DHT22;32071;49.036;9.344;2023-06-26T10:21:24;29.80;81.30
46364;DHT22;32071;49.036;9.344;2023-06-26T10:23:52;29.80;82.10
46364;DHT22;32071;49.036;9.344;2023-06-26T10:26:20;29.90;83.00
46364;DHT22;32071;49.036;9.344;2023-06-26T10:28:47;30.00;82.70
46364;DHT22;32071;49.036;9.344;2023-06-26T10:31:15;29.80;82.70
46364;DHT22;32071;49.036;9.344;2023-06-26T10:33:41;29.60;82.00
46364;DHT22;32071;49.036;9.344;2023-06-26T10:36:17;29.40;82.30
46364;DHT22;32071;49.036;9.344;2023-06-26T10:38:56;29.20;82.30
46364;DHT22;32071;49.036;9.344;2023-06-26T10:41:23;29.10;82.30
46364;DHT22;32071;49.036;9.344;2023-06-26T10:44:10;28.90;82.60
46364;DHT22;32071;49.036;9.344;2023-06-26T10:46:50;29.00;83.80
46364;DHT22;32071;49.036;9.344;2023-06-26T10:49:17;29.10;84.50
46364;DHT22;32071;49.036;9.344;2023-06-26T10:51:49;29.30;83.80
46364;DHT22;32071;49.036;9.344;2023-06-26T10:54:16;29.40;83.80
46364;DHT22;32071;49.036;9.344;2023-06-26T10:56:46;29.30;81.90
46364;DHT22;32071;49.036;9.344;2023-06-26T10:59:20;29.30;83.40
46364;DHT22;32071;49.036;9.344;2023-06-26T11:01:56;29.50;83.10
46364;DHT22;32071;49.036;9.344;2023-06-26T11:04:43;29.70;84.60
46364;DHT22;32071;49.036;9.344;2023-06-26T11:07:20;30.00;83.90
46364;DHT22;32071;49.036;9.344;2023-06-26T11:10:08;30.20;82.50
46364;DHT22;32071;49.036;9.344;2023-06-26T11:15:12;30.30;83.30
46364;DHT22;32071;49.036;9.344;2023-06-26T11:17:38;30.20;83.80
46364;DHT22;32071;49.036;9.344;2023-06-26T11:20:09;29.80;84.20
46364;DHT22;32071;49.036;9.344;2023-06-26T11:22:36;29.20;84.20
46364;DHT22;32071;49.036;9.344;2023-06-26T11:25:02;29.00;85.80
46364;DHT22;32071;49.036;9.344;2023-06-26T11:27:37;29.00;87.80
46364;DHT22;32071;49.036;9.344;2023-06-26T11:30:06;29.30;87.10
46364;DHT22;32071;49.036;9.344;2023-06-26T11:32:33;29.60;85.00
46364;DHT22;32071;49.036;9.344;2023-06-26T11:34:59;29.60;86.80
46364;DHT22;32071;49.036;9.344;2023-06-26T11:37:25;29.50;83.80
46364;DHT22;32071;49.036;9.344;2023-06-26T11:39:50;29.60;84.60
46364;DHT22;32071;49.036;9.344;2023-06-26T11:42:19;29.80;84.10
46364;DHT22;32071;49.036;9.344;2023-06-26T11:44:45;29.60;85.20
46364;DHT22;32071;49.036;9.344;2023-06-26T11:47:20;29.60;85.90
46364;DHT22;32071;49.036;9.344;2023-06-26T11:49:47;29.90;84.80
46364;DHT22;32071;49.036;9.344;2023-06-26T11:52:14;29.90;84.40
46364;DHT22;32071;49.036;9.344;2023-06-26T11:54:40;29.60;84.30
46364;DHT22;32071;49.036;9.344;2023-06-26T11:57:06;29.40;87.20
46364;DHT22;32071;49.036;9.344;2023-06-26T11:59:37;29.50;85.50
46364;DHT22;32071;49.036;9.344;2023-06-26T12:02:07;29.50;85.10
46364;DHT22;32071;49.036;9.344;2023-06-26T12:04:33;29.60;85.70
46364;DHT22;32071;49.036;9.344;2023-06-26T12:07:01;29.50;86.00
46364;DHT22;32071;49.036;9.344;2023-06-26T12:09:32;29.30;86.60
46364;DHT22;32071;49.036;9.344;2023-06-26T12:11:59;28.90;87.70
46364;DHT22;32071;49.036;9.344;2023-06-26T12:14:26;28.80;88.90
46364;DHT22;32071;49.036;9.344;2023-06-26T12:16:54;28.80;88.50
46364;DHT22;32071;49.036;9.344;2023-06-26T12:19:24;28.70;88.60
46364;DHT22;32071;49.036;9.344;2023-06-26T12:21:51;29.70;88.50
46364;DHT22;32071;49.036;9.344;2023-06-26T12:24:21;30.70;86.20
46364;DHT22;32071;49.036;9.344;2023-06-26T12:26:52;31.60;83.80
46364;DHT22;32071;49.036;9.344;2023-06-26T12:29:20;31.90;82.60
46364;DHT22;32071;49.036;9.344;2023-06-26T12:31:52;32.10;81.50
46364;DHT22;32071;49.036;9.344;2023-06-26T12:34:19;32.30;81.30
46364;DHT22;32071;49.036;9.344;2023-06-26T12:36:48;32.60;79.70
46364;DHT22;32071;49.036;9.344;2023-06-26T12:39:19;32.30;80.70
46364;DHT22;32071;49.036;9.344;2023-06-26T12:41:53;32.60;80.70
46364;DHT22;32071;49.036;9.344;2023-06-26T12:44:29;33.00;79.90
46364;DHT22;32071;49.036;9.344;2023-06-26T12:46:59;33.10;79.20
46364;DHT22;32071;49.036;9.344;2023-06-26T12:49:33;32.80;79.90
46364;DHT22;32071;49.036;9.344;2023-06-26T12:52:01;33.00;79.20
46364;DHT22;32071;49.036;9.344;2023-06-26T12:54:27;33.50;77.60
46364;DHT22;32071;49.036;9.344;2023-06-26T12:56:53;33.40;77.80
46364;DHT22;32071;49.036;9.344;2023-06-26T12:59:19;33.30;77.00
46364;DHT22;32071;49.036;9.344;2023-06-26T13:01:44;33.20;77.00
46364;DHT22;32071;49.036;9.344;2023-06-26T13:04:10;33.30;76.80
46364;DHT22;32071;49.036;9.344;2023-06-26T13:06:36;33.70;77.30
46364;DHT22;32071;49.036;9.344;2023-06-26T13:09:02;34.10;76.00
46364;DHT22;32071;49.036;9.344;2023-06-26T13:11:32;34.30;75.20
46364;DHT22;32071;49.036;9.344;2023-06-26T13:14:01;34.60;74.80
46364;DHT22;32071;49.036;9.344;2023-06-26T13:16:27;34.50;73.00
46364;DHT22;32071;49.036;9.344;2023-06-26T13:18:52;33.90;74.30
46364;DHT22;32071;49.036;9.344;2023-06-26T13:21:18;33.70;75.40
46364;DHT22;32071;49.036;9.344;2023-06-26T13:23:44;34.40;73.00
46364;DHT22;32071;49.036;9.344;2023-06-26T13:26:10;34.70;71.10
46364;DHT22;32071;49.036;9.344;2023-06-26T13:28:37;35.00;69.80
46364;DHT22;32071;49.036;9.344;2023-06-26T13:31:03;35.30;68.70
46364;DHT22;32071;49.036;9.344;2023-06-26T13:33:30;35.00;68.20
46364;DHT22;32071;49.036;9.344;2023-06-26T13:35:56;35.10;67.20
46364;DHT22;32071;49.036;9.344;2023-06-26T13:38:25;34.90;67.70
46364;DHT22;32071;49.036;9.344;2023-06-26T13:40:54;35.70;66.60
46364;DHT22;32071;49.036;9.344;2023-06-26T13:43:22;36.60;65.80
46364;DHT22;32071;49.036;9.344;2023-06-26T13:45:49;36.50;63.10
46364;DHT22;32071;49.036;9.344;2023-06-26T13:48:14;35.80;62.70
46364;DHT22;32071;49.036;9.344;2023-06-26T13:50:40;35.60;63.80
46364;DHT22;32071;49.036;9.344;2023-06-26T13:53:05;36.00;62.30
46364;DHT22;32071;49.036;9.344;2023-06-26T13:55:31;36.10;61.10
46364;DHT22;32071;49.036;9.344;2023-06-26T13:57:58;36.20;59.80
46364;DHT22;32071;49.036;9.344;2023-06-26T14:00:24;36.20;59.60
46364;DHT22;32071;49.036;9.344;2023-06-26T14:02:50;36.40;59.30
46364;DHT22;32071;49.036;9.344;2023-06-26T14:05:15;36.20;59.00
46364;DHT22;32071;49.036;9.344;2023-06-26T14:07:44;35.80;59.20
46364;DHT22;32071;49.036;9.344;2023-06-26T14:10:09;35.50;59.50
46364;DHT22;32071;49.036;9.344;2023-06-26T14:12:35;35.60;59.00
46364;DHT22;32071;49.036;9.344;2023-06-26T14:15:01;36.00;58.50
46364;DHT22;32071;49.036;9.344;2023-06-26T14:17:26;35.70;58.70
46364;DHT22;32071;49.036;9.344;2023-06-26T14:19:52;35.50;57.40
46364;DHT22;32071;49.036;9.344;2023-06-26T14:22:18;35.40;58.20
46364;DHT22;32071;49.036;9.344;2023-06-26T14:24:44;35.10;57.30
46364;DHT22;32071;49.036;9.344;2023-06-26T14:27:10;35.30;57.40
46364;DHT22;32071;49.036;9.344;2023-06-26T14:29:36;35.70;56.00
46364;DHT22;32071;49.036;9.344;2023-06-26T14:32:02;35.90;56.10
46364;DHT22;32071;49.036;9.344;2023-06-26T14:34:28;36.10;54.80
46364;DHT22;32071;49.036;9.344;2023-06-26T14:36:54;35.90;55.00
46364;DHT22;32071;49.036;9.344;2023-06-26T14:39:19;35.80;56.40
46364;DHT22;32071;49.036;9.344;2023-06-26T14:41:45;35.30;54.60
46364;DHT22;32071;49.036;9.344;2023-06-26T14:44:12;34.90;54.50
46364;DHT22;32071;49.036;9.344;2023-06-26T14:46:38;35.40;53.60
46364;DHT22;32071;49.036;9.344;2023-06-26T14:49:04;35.50;54.90
46364;DHT22;32071;49.036;9.344;2023-06-26T14:51:29;35.70;54.40
46364;DHT22;32071;49.036;9.344;2023-06-26T14:53:55;35.60;54.00
46364;DHT22;32071;49.036;9.344;2023-06-26T14:56:20;35.20;55.20
46364;DHT22;32071;49.036;9.344;2023-06-26T14:58:46;35.40;53.70
46364;DHT22;32071;49.036;9.344;2023-06-26T15:01:16;35.30;53.80
46364;DHT22;32071;49.036;9.344;2023-06-26T15:03:42;34.90;54.40
46364;DHT22;32071;49.036;9.344;2023-06-26T15:06:07;35.00;55.00
46364;DHT22;32071;49.036;9.344;2023-06-26T15:08:35;34.60;54.00
46364;DHT22;32071;49.036;9.344;2023-06-26T15:11:01;34.30;54.00
46364;DHT22;32071;49.036;9.344;2023-06-26T15:13:28;34.20;55.20
46364;DHT22;32071;49.036;9.344;2023-06-26T15:15:53;34.10;55.10
46364;DHT22;32071;49.036;9.344;2023-06-26T15:18:19;34.10;54.90
46364;DHT22;32071;49.036;9.344;2023-06-26T15:20:45;34.10;55.70
46364;DHT22;32071;49.036;9.344;2023-06-26T15:23:10;33.80;56.00
46364;DHT22;32071;49.036;9.344;2023-06-26T15:25:36;33.30;56.90
46364;DHT22;32071;49.036;9.344;2023-06-26T15:28:11;33.00;58.40
46364;DHT22;32071;49.036;9.344;2023-06-26T15:30:36;32.10;58.30
46364;DHT22;32071;49.036;9.344;2023-06-26T15:33:02;31.20;61.00
46364;DHT22;32071;49.036;9.344;2023-06-26T15:35:27;30.70;61.60